sensor_id;sensor_type;location;lat;lon;timestamp;temperature;humidity
32947;DHT22;54465;51.230;22.504;2022-09-09T00:01:54;13.40;99.90
32947;DHT22;54465;51.230;22.504;2022-09-09T00:05:04;13.40;99.90
32947;DHT22;54465;51.230;22.504;2022-09-09T00:08:18;13.30;99.90
32947;DHT22;54465;51.230;22.504;2022-09-09T00:11:26;13.40;99.90
32947;DHT22;54465;51.230;22.504;2022-09-09T00:14:34;13.30;99.90
32947;DHT22;54465;51.230;22.504;2022-09-09T00:17:45;13.30;99.90
32947;DHT22;54465;51.230;22.504;2022-09-09T00:20:56;13.30;99.90
32947;DHT22;54465;51.230;22.504;2022-09-09T00:24:04;13.30;99.90
32947;DHT22;54465;51.230;22.504;2022-09-09T00:27:18;13.30;99.90
32947;DHT22;54465;51.230;22.504;2022-09-09T00:30:24;13.20;99.90
32947;DHT22;54465;51.230;22.504;2022-09-09T00:33:32;13.20;99.90
32947;DHT22;54465;51.230;22.504;2022-09-09T00:36:35;13.30;99.90
32947;DHT22;54465;51.230;22.504;2022-09-09T00:39:42;13.20;99.90
32947;DHT22;54465;51.230;22.504;2022-09-09T00:42:45;13.20;99.90
32947;DHT22;54465;51.230;22.504;2022-09-09T00:46:08;13.10;99.90
32947;DHT22;54465;51.230;22.504;2022-09-09T00:49:22;13.10;99.90
32947;DHT22;54465;51.230;22.504;2022-09-09T00:52:37;13.00;99.90
32947;DHT22;54465;51.230;22.504;2022-09-09T00:55:46;13.00;99.90
32947;DHT22;54465;51.230;22.504;2022-09-09T00:58:55;13.00;99.90
32947;DHT22;54465;51.230;22.504;2022-09-09T01:02:04;13.00;99.90
32947;DHT22;54465;51.230;22.504;2022-09-09T01:05:16;12.90;99.90
32947;DHT22;54465;51.230;22.504;2022-09-09T01:08:36;12.90;99.90
32947;DHT22;54465;51.230;22.504;2022-09-09T01:11:51;13.00;99.90
32947;DHT22;54465;51.230;22.504;2022-09-09T01:15:01;12.90;99.90
32947;DHT22;54465;51.230;22.504;2022-09-09T01:18:08;12.90;99.90
32947;DHT22;54465;51.230;22.504;2022-09-09T01:21:23;12.90;99.90
32947;DHT22;54465;51.230;22.504;2022-09-09T01:24:36;12.90;99.90
32947;DHT22;54465;51.230;22.504;2022-09-09T01:27:56;12.90;99.90
32947;DHT22;54465;51.230;22.504;2022-09-09T01:31:00;12.80;99.90
32947;DHT22;54465;51.230;22.504;2022-09-09T01:34:11;12.80;99.90
32947;DHT22;54465;51.230;22.504;2022-09-09T01:37:15;12.80;99.90
32947;DHT22;54465;51.230;22.504;2022-09-09T01:40:18;12.80;99.90
32947;DHT22;54465;51.230;22.504;2022-09-09T01:43:25;12.80;99.90
32947;DHT22;54465;51.230;22.504;2022-09-09T01:46:29;12.80;99.90
32947;DHT22;54465;51.230;22.504;2022-09-09T01:49:32;12.70;99.90
32947;DHT22;54465;51.230;22.504;2022-09-09T01:52:42;12.70;99.90
32947;DHT22;54465;51.230;22.504;2022-09-09T01:55:56;12.70;99.90
32947;DHT22;54465;51.230;22.504;2022-09-09T01:59:24;12.70;99.90
32947;DHT22;54465;51.230;22.504;2022-09-09T02:02:35;12.70;99.90
32947;DHT22;54465;51.230;22.504;2022-09-09T02:05:49;12.60;99.90
32947;DHT22;54465;51.230;22.504;2022-09-09T02:09:03;12.60;99.90
32947;DHT22;54465;51.230;22.504;2022-09-09T02:12:11;12.50;99.90
32947;DHT22;54465;51.230;22.504;2022-09-09T02:15:28;12.50;99.90
32947;DHT22;54465;51.230;22.504;2022-09-09T02:18:35;12.50;99.90
32947;DHT22;54465;51.230;22.504;2022-09-09T02:21:43;12.50;99.90
32947;DHT22;54465;51.230;22.504;2022-09-09T02:24:50;12.50;99.90
32947;DHT22;54465;51.230;22.504;2022-09-09T02:28:00;12.50;99.90
32947;DHT22;54465;51.230;22.504;2022-09-09T02:31:05;12.50;99.90
32947;DHT22;54465;51.230;22.504;2022-09-09T02:34:14;12.50;99.90
32947;DHT22;54465;51.230;22.504;2022-09-09T02:37:19;12.40;99.90
32947;DHT22;54465;51.230;22.504;2022-09-09T02:40:26;12.40;99.90
32947;DHT22;54465;51.230;22.504;2022-09-09T02:43:35;12.40;99.90
32947;DHT22;54465;51.230;22.504;2022-09-09T02:46:56;12.40;99.90
32947;DHT22;54465;51.230;22.504;2022-09-09T02:50:17;12.40;99.90
32947;DHT22;54465;51.230;22.504;2022-09-09T02:53:22;12.40;99.90
32947;DHT22;54465;51.230;22.504;2022-09-09T02:56:29;12.40;99.90
32947;DHT22;54465;51.230;22.504;2022-09-09T02:59:36;12.40;99.90
32947;DHT22;54465;51.230;22.504;2022-09-09T03:02:40;12.40;99.90
32947;DHT22;54465;51.230;22.504;2022-09-09T03:05:43;12.40;99.90
32947;DHT22;54465;51.230;22.504;2022-09-09T03:08:53;12.40;99.90
32947;DHT22;54465;51.230;22.504;2022-09-09T03:11:59;12.40;99.90
32947;DHT22;54465;51.230;22.504;2022-09-09T03:15:08;12.40;99.90
32947;DHT22;54465;51.230;22.504;2022-09-09T03:18:17;12.40;99.90
32947;DHT22;54465;51.230;22.504;2022-09-09T03:21:24;12.40;99.90
32947;DHT22;54465;51.230;22.504;2022-09-09T03:24:27;12.40;99.90
32947;DHT22;54465;51.230;22.504;2022-09-09T03:27:30;12.40;99.90
32947;DHT22;54465;51.230;22.504;2022-09-09T03:30:33;12.40;99.90
32947;DHT22;54465;51.230;22.504;2022-09-09T03:33:37;12.50;99.90
32947;DHT22;54465;51.230;22.504;2022-09-09T03:36:41;12.50;99.90
32947;DHT22;54465;51.230;22.504;2022-09-09T03:39:44;12.50;99.90
32947;DHT22;54465;51.230;22.504;2022-09-09T03:48:10;12.60;99.90
32947;DHT22;54465;51.230;22.504;2022-09-09T03:55:57;12.60;99.90
32947;DHT22;54465;51.230;22.504;2022-09-09T03:59:02;12.60;99.90
32947;DHT22;54465;51.230;22.504;2022-09-09T04:02:08;12.60;99.90
32947;DHT22;54465;51.230;22.504;2022-09-09T04:05:16;12.60;99.90
32947;DHT22;54465;51.230;22.504;2022-09-09T04:08:21;12.60;99.90
32947;DHT22;54465;51.230;22.504;2022-09-09T04:11:32;12.60;99.90
32947;DHT22;54465;51.230;22.504;2022-09-09T04:14:36;12.60;99.90
32947;DHT22;54465;51.230;22.504;2022-09-09T04:17:46;12.60;99.90
32947;DHT22;54465;51.230;22.504;2022-09-09T04:20:50;12.60;99.90
32947;DHT22;54465;51.230;22.504;2022-09-09T04:23:56;12.70;99.90
32947;DHT22;54465;51.230;22.504;2022-09-09T04:27:04;12.70;99.90
32947;DHT22;54465;51.230;22.504;2022-09-09T04:30:11;12.80;99.90
32947;DHT22;54465;51.230;22.504;2022-09-09T04:33:16;12.80;99.90
32947;DHT22;54465;51.230;22.504;2022-09-09T04:36:19;12.80;99.90
32947;DHT22;54465;51.230;22.504;2022-09-09T04:39:24;12.80;99.90
32947;DHT22;54465;51.230;22.504;2022-09-09T04:42:29;12.80;99.90
32947;DHT22;54465;51.230;22.504;2022-09-09T04:45:31;12.80;99.90
32947;DHT22;54465;51.230;22.504;2022-09-09T04:48:35;12.90;99.90
32947;DHT22;54465;51.230;22.504;2022-09-09T04:51:39;12.90;99.90
32947;DHT22;54465;51.230;22.504;2022-09-09T04:54:41;12.90;99.90
32947;DHT22;54465;51.230;22.504;2022-09-09T04:57:45;12.90;99.90
32947;DHT22;54465;51.230;22.504;2022-09-09T05:00:49;12.90;99.90
32947;DHT22;54465;51.230;22.504;2022-09-09T05:03:53;12.90;99.90
32947;DHT22;54465;51.230;22.504;2022-09-09T05:06:57;12.90;99.90
32947;DHT22;54465;51.230;22.504;2022-09-09T05:09:59;13.00;99.90
32947;DHT22;54465;51.230;22.504;2022-09-09T05:13:06;13.00;99.90
32947;DHT22;54465;51.230;22.504;2022-09-09T05:16:10;13.00;99.90
32947;DHT22;54465;51.230;22.504;2022-09-09T05:19:13;13.00;99.90
32947;DHT22;54465;51.230;22.504;2022-09-09T05:22:19;13.00;99.90
32947;DHT22;54465;51.230;22.504;2022-09-09T05:25:25;13.10;99.90
32947;DHT22;54465;51.230;22.504;2022-09-09T05:28:33;13.10;99.90
32947;DHT22;54465;51.230;22.504;2022-09-09T05:31:37;13.10;99.90
32947;DHT22;54465;51.230;22.504;2022-09-09T05:34:44;13.00;99.90
32947;DHT22;54465;51.230;22.504;2022-09-09T05:37:47;13.00;99.90
32947;DHT22;54465;51.230;22.504;2022-09-09T05:40:50;13.00;99.90
32947;DHT22;54465;51.230;22.504;2022-09-09T05:43:54;13.00;99.90
32947;DHT22;54465;51.230;22.504;2022-09-09T05:46:57;13.00;99.90
32947;DHT22;54465;51.230;22.504;2022-09-09T05:49:59;13.00;99.90
32947;DHT22;54465;51.230;22.504;2022-09-09T05:53:03;13.00;99.90
32947;DHT22;54465;51.230;22.504;2022-09-09T05:56:07;13.00;99.90
32947;DHT22;54465;51.230;22.504;2022-09-09T05:59:12;13.00;99.90
32947;DHT22;54465;51.230;22.504;2022-09-09T06:02:15;12.90;99.90
32947;DHT22;54465;51.230;22.504;2022-09-09T06:05:19;12.90;99.90
32947;DHT22;54465;51.230;22.504;2022-09-09T06:08:26;12.90;99.90
32947;DHT22;54465;51.230;22.504;2022-09-09T06:11:30;12.90;99.90
32947;DHT22;54465;51.230;22.504;2022-09-09T06:14:36;12.90;99.90
32947;DHT22;54465;51.230;22.504;2022-09-09T06:17:39;12.90;99.90
32947;DHT22;54465;51.230;22.504;2022-09-09T06:20:42;12.90;99.90
32947;DHT22;54465;51.230;22.504;2022-09-09T06:23:44;12.90;99.90
32947;DHT22;54465;51.230;22.504;2022-09-09T06:26:49;12.90;99.90
32947;DHT22;54465;51.230;22.504;2022-09-09T06:29:57;12.90;99.90
32947;DHT22;54465;51.230;22.504;2022-09-09T06:33:00;12.90;99.90
32947;DHT22;54465;51.230;22.504;2022-09-09T06:36:06;12.80;99.90
32947;DHT22;54465;51.230;22.504;2022-09-09T06:39:09;12.80;99.90
32947;DHT22;54465;51.230;22.504;2022-09-09T06:42:13;12.80;99.90
32947;DHT22;54465;51.230;22.504;2022-09-09T06:46:00;12.80;99.90
32947;DHT22;54465;51.230;22.504;2022-09-09T06:49:03;12.90;99.90
32947;DHT22;54465;51.230;22.504;2022-09-09T06:52:06;12.90;99.90
32947;DHT22;54465;51.230;22.504;2022-09-09T06:55:10;12.90;99.90
32947;DHT22;54465;51.230;22.504;2022-09-09T06:58:14;12.80;99.90
32947;DHT22;54465;51.230;22.504;2022-09-09T07:01:19;12.80;99.90
32947;DHT22;54465;51.230;22.504;2022-09-09T07:04:22;12.80;99.90
32947;DHT22;54465;51.230;22.504;2022-09-09T07:07:25;12.80;99.90
32947;DHT22;54465;51.230;22.504;2022-09-09T07:10:28;12.80;99.90
32947;DHT22;54465;51.230;22.504;2022-09-09T07:13:31;12.80;99.90
32947;DHT22;54465;51.230;22.504;2022-09-09T07:16:36;12.80;99.90
32947;DHT22;54465;51.230;22.504;2022-09-09T07:19:40;12.80;99.90
32947;DHT22;54465;51.230;22.504;2022-09-09T07:22:44;12.90;99.90
32947;DHT22;54465;51.230;22.504;2022-09-09T07:25:47;12.90;99.90
32947;DHT22;54465;51.230;22.504;2022-09-09T07:28:52;12.90;99.90
32947;DHT22;54465;51.230;22.504;2022-09-09T07:31:57;12.90;99.90
32947;DHT22;54465;51.230;22.504;2022-09-09T07:35:06;13.00;99.90
32947;DHT22;54465;51.230;22.504;2022-09-09T07:38:12;13.00;99.90
32947;DHT22;54465;51.230;22.504;2022-09-09T07:41:20;13.00;99.90
32947;DHT22;54465;51.230;22.504;2022-09-09T07:44:25;13.00;99.90
32947;DHT22;54465;51.230;22.504;2022-09-09T07:47:36;13.10;99.90
32947;DHT22;54465;51.230;22.504;2022-09-09T07:50:39;13.10;99.90
32947;DHT22;54465;51.230;22.504;2022-09-09T07:53:42;13.10;99.90
32947;DHT22;54465;51.230;22.504;2022-09-09T07:56:45;13.10;99.90
32947;DHT22;54465;51.230;22.504;2022-09-09T07:59:47;13.20;99.90
32947;DHT22;54465;51.230;22.504;2022-09-09T08:02:52;13.20;99.90
32947;DHT22;54465;51.230;22.504;2022-09-09T08:06:00;13.20;99.90
32947;DHT22;54465;51.230;22.504;2022-09-09T08:09:03;13.20;99.90
32947;DHT22;54465;51.230;22.504;2022-09-09T08:12:07;13.20;99.90
32947;DHT22;54465;51.230;22.504;2022-09-09T08:15:11;13.10;99.90
32947;DHT22;54465;51.230;22.504;2022-09-09T08:18:17;13.10;99.90
32947;DHT22;54465;51.230;22.504;2022-09-09T08:21:22;13.10;99.90
32947;DHT22;54465;51.230;22.504;2022-09-09T08:24:28;13.20;99.90
32947;DHT22;54465;51.230;22.504;2022-09-09T08:27:33;13.20;99.90
32947;DHT22;54465;51.230;22.504;2022-09-09T08:30:36;13.20;99.90
32947;DHT22;54465;51.230;22.504;2022-09-09T08:33:44;13.20;99.90
32947;DHT22;54465;51.230;22.504;2022-09-09T08:36:48;13.20;99.90
32947;DHT22;54465;51.230;22.504;2022-09-09T08:39:51;13.20;99.90
32947;DHT22;54465;51.230;22.504;2022-09-09T08:42:56;13.20;99.90
32947;DHT22;54465;51.230;22.504;2022-09-09T08:46:08;13.40;99.90
32947;DHT22;54465;51.230;22.504;2022-09-09T08:49:44;13.40;99.90
32947;DHT22;54465;51.230;22.504;2022-09-09T08:53:00;13.50;99.90
32947;DHT22;54465;51.230;22.504;2022-09-09T08:56:09;13.50;99.90
32947;DHT22;54465;51.230;22.504;2022-09-09T08:59:20;13.50;99.90
32947;DHT22;54465;51.230;22.504;2022-09-09T09:02:30;13.50;99.90
32947;DHT22;54465;51.230;22.504;2022-09-09T09:05:44;13.50;99.90
32947;DHT22;54465;51.230;22.504;2022-09-09T09:08:58;13.50;99.90
32947;DHT22;54465;51.230;22.504;2022-09-09T09:12:13;13.50;99.90
32947;DHT22;54465;51.230;22.504;2022-09-09T09:15:20;13.50;99.90
32947;DHT22;54465;51.230;22.504;2022-09-09T09:18:27;13.60;99.90
32947;DHT22;54465;51.230;22.504;2022-09-09T09:21:38;13.60;99.90
32947;DHT22;54465;51.230;22.504;2022-09-09T09:24:45;13.60;99.90
32947;DHT22;54465;51.230;22.504;2022-09-09T09:27:59;13.60;99.90
32947;DHT22;54465;51.230;22.504;2022-09-09T09:31:06;13.60;99.90
32947;DHT22;54465;51.230;22.504;2022-09-09T09:34:11;13.60;99.90
32947;DHT22;54465;51.230;22.504;2022-09-09T09:37:20;13.60;99.90
32947;DHT22;54465;51.230;22.504;2022-09-09T09:40:24;13.70;99.90
32947;DHT22;54465;51.230;22.504;2022-09-09T09:43:28;13.70;99.90
32947;DHT22;54465;51.230;22.504;2022-09-09T09:46:33;13.70;99.90
32947;DHT22;54465;51.230;22.504;2022-09-09T09:49:52;13.70;99.90
32947;DHT22;54465;51.230;22.504;2022-09-09T09:52:58;13.80;99.90
32947;DHT22;54465;51.230;22.504;2022-09-09T09:56:04;13.70;99.90
32947;DHT22;54465;51.230;22.504;2022-09-09T09:59:23;13.70;99.90
32947;DHT22;54465;51.230;22.504;2022-09-09T10:02:26;13.80;99.90
32947;DHT22;54465;51.230;22.504;2022-09-09T10:05:46;13.80;99.90
32947;DHT22;54465;51.230;22.504;2022-09-09T10:08:56;13.80;99.90
32947;DHT22;54465;51.230;22.504;2022-09-09T10:12:02;13.80;99.90
32947;DHT22;54465;51.230;22.504;2022-09-09T10:15:23;13.90;99.90
32947;DHT22;54465;51.230;22.504;2022-09-09T10:18:39;13.90;99.90
32947;DHT22;54465;51.230;22.504;2022-09-09T10:22:02;14.10;99.90
32947;DHT22;54465;51.230;22.504;2022-09-09T10:25:22;14.20;99.90
32947;DHT22;54465;51.230;22.504;2022-09-09T10:28:46;14.20;99.90
32947;DHT22;54465;51.230;22.504;2022-09-09T10:31:58;14.30;99.90
32947;DHT22;54465;51.230;22.504;2022-09-09T10:35:10;14.30;99.90
32947;DHT22;54465;51.230;22.504;2022-09-09T10:38:17;14.40;99.90
32947;DHT22;54465;51.230;22.504;2022-09-09T10:41:40;14.40;99.90
32947;DHT22;54465;51.230;22.504;2022-09-09T10:44:59;14.50;99.90
32947;DHT22;54465;51.230;22.504;2022-09-09T10:48:12;14.40;99.90
32947;DHT22;54465;51.230;22.504;2022-09-09T10:51:23;14.40;99.90
32947;DHT22;54465;51.230;22.504;2022-09-09T10:54:41;14.50;99.90
32947;DHT22;54465;51.230;22.504;2022-09-09T10:57:48;14.50;99.90
32947;DHT22;54465;51.230;22.504;2022-09-09T11:00:56;14.60;99.90
32947;DHT22;54465;51.230;22.504;2022-09-09T11:04:04;14.60;99.90
32947;DHT22;54465;51.230;22.504;2022-09-09T11:07:08;14.60;99.90
32947;DHT22;54465;51.230;22.504;2022-09-09T11:10:20;14.50;99.90
32947;DHT22;54465;51.230;22.504;2022-09-09T11:13:32;14.50;99.90
32947;DHT22;54465;51.230;22.504;2022-09-09T11:16:40;14.50;99.90
32947;DHT22;54465;51.230;22.504;2022-09-09T11:19:44;14.50;99.90
32947;DHT22;54465;51.230;22.504;2022-09-09T11:22:50;14.50;99.90
32947;DHT22;54465;51.230;22.504;2022-09-09T11:25:55;14.60;99.90
32947;DHT22;54465;51.230;22.504;2022-09-09T11:29:14;14.50;99.90
32947;DHT22;54465;51.230;22.504;2022-09-09T11:32:37;14.50;99.90
32947;DHT22;54465;51.230;22.504;2022-09-09T11:35:56;14.50;99.90
32947;DHT22;54465;51.230;22.504;2022-09-09T11:39:06;14.50;99.90
32947;DHT22;54465;51.230;22.504;2022-09-09T11:42:17;14.50;99.90
32947;DHT22;54465;51.230;22.504;2022-09-09T11:45:22;14.50;99.90
32947;DHT22;54465;51.230;22.504;2022-09-09T11:48:31;14.60;99.90
32947;DHT22;54465;51.230;22.504;2022-09-09T11:51:34;14.60;99.90
32947;DHT22;54465;51.230;22.504;2022-09-09T11:54:46;14.60;99.90
32947;DHT22;54465;51.230;22.504;2022-09-09T11:57:57;14.50;99.90
32947;DHT22;54465;51.230;22.504;2022-09-09T12:01:13;14.50;99.90
32947;DHT22;54465;51.230;22.504;2022-09-09T12:04:30;14.50;99.90
32947;DHT22;54465;51.230;22.504;2022-09-09T12:07:37;14.50;99.90
32947;DHT22;54465;51.230;22.504;2022-09-09T12:10:41;14.50;99.90
32947;DHT22;54465;51.230;22.504;2022-09-09T12:13:53;14.60;99.90
32947;DHT22;54465;51.230;22.504;2022-09-09T12:16:57;14.60;99.90
32947;DHT22;54465;51.230;22.504;2022-09-09T12:20:14;14.60;99.90
32947;DHT22;54465;51.230;22.504;2022-09-09T12:23:30;14.70;99.90
32947;DHT22;54465;51.230;22.504;2022-09-09T12:26:37;14.80;99.90
32947;DHT22;54465;51.230;22.504;2022-09-09T12:29:47;14.80;99.90
32947;DHT22;54465;51.230;22.504;2022-09-09T12:33:01;14.70;99.90
32947;DHT22;54465;51.230;22.504;2022-09-09T12:36:04;14.70;99.90
32947;DHT22;54465;51.230;22.504;2022-09-09T12:39:17;14.70;99.90
32947;DHT22;54465;51.230;22.504;2022-09-09T12:42:22;14.80;99.90
32947;DHT22;54465;51.230;22.504;2022-09-09T12:45:26;14.80;99.90
32947;DHT22;54465;51.230;22.504;2022-09-09T12:48:35;14.90;99.90
32947;DHT22;54465;51.230;22.504;2022-09-09T12:51:39;14.90;99.90
32947;DHT22;54465;51.230;22.504;2022-09-09T12:54:47;14.90;99.90
32947;DHT22;54465;51.230;22.504;2022-09-09T12:57:52;14.90;99.90
32947;DHT22;54465;51.230;22.504;2022-09-09T13:00:56;14.90;99.90
32947;DHT22;54465;51.230;22.504;2022-09-09T13:04:00;15.00;99.90
32947;DHT22;54465;51.230;22.504;2022-09-09T13:07:06;15.00;99.90
32947;DHT22;54465;51.230;22.504;2022-09-09T13:10:13;15.00;99.90
32947;DHT22;54465;51.230;22.504;2022-09-09T13:13:17;14.90;99.90
32947;DHT22;54465;51.230;22.504;2022-09-09T13:16:25;14.90;99.90
32947;DHT22;54465;51.230;22.504;2022-09-09T13:19:36;14.90;99.90
32947;DHT22;54465;51.230;22.504;2022-09-09T13:22:39;14.90;99.90
32947;DHT22;54465;51.230;22.504;2022-09-09T13:25:53;14.90;99.90
32947;DHT22;54465;51.230;22.504;2022-09-09T13:29:09;14.90;99.90
32947;DHT22;54465;51.230;22.504;2022-09-09T13:32:18;14.90;99.90
32947;DHT22;54465;51.230;22.504;2022-09-09T13:35:24;15.00;99.90
32947;DHT22;54465;51.230;22.504;2022-09-09T13:38:30;15.00;99.90
32947;DHT22;54465;51.230;22.504;2022-09-09T13:41:43;15.10;99.90
32947;DHT22;54465;51.230;22.504;2022-09-09T13:44:46;15.10;99.90
32947;DHT22;54465;51.230;22.504;2022-09-09T13:47:49;15.10;99.90
32947;DHT22;54465;51.230;22.504;2022-09-09T13:51:00;15.20;99.90
32947;DHT22;54465;51.230;22.504;2022-09-09T13:54:03;15.20;99.90
32947;DHT22;54465;51.230;22.504;2022-09-09T13:57:15;15.20;99.90
32947;DHT22;54465;51.230;22.504;2022-09-09T14:00:19;15.30;99.90
32947;DHT22;54465;51.230;22.504;2022-09-09T14:03:22;15.40;99.90
32947;DHT22;54465;51.230;22.504;2022-09-09T14:06:25;15.50;99.90
32947;DHT22;54465;51.230;22.504;2022-09-09T14:09:29;15.50;99.90
32947;DHT22;54465;51.230;22.504;2022-09-09T14:12:32;15.50;99.90
32947;DHT22;54465;51.230;22.504;2022-09-09T14:15:37;15.40;99.90
32947;DHT22;54465;51.230;22.504;2022-09-09T14:18:40;15.40;99.90
32947;DHT22;54465;51.230;22.504;2022-09-09T14:21:44;15.40;99.90
32947;DHT22;54465;51.230;22.504;2022-09-09T14:24:47;15.40;99.90
32947;DHT22;54465;51.230;22.504;2022-09-09T14:27:50;15.50;99.90
32947;DHT22;54465;51.230;22.504;2022-09-09T14:30:52;15.50;99.90
32947;DHT22;54465;51.230;22.504;2022-09-09T14:33:55;15.50;99.90
32947;DHT22;54465;51.230;22.504;2022-09-09T14:37:01;15.40;99.90
32947;DHT22;54465;51.230;22.504;2022-09-09T14:40:04;15.30;99.90
32947;DHT22;54465;51.230;22.504;2022-09-09T14:43:10;15.30;99.90
32947;DHT22;54465;51.230;22.504;2022-09-09T14:46:14;15.30;99.90
32947;DHT22;54465;51.230;22.504;2022-09-09T14:49:16;15.30;99.90
32947;DHT22;54465;51.230;22.504;2022-09-09T14:52:20;15.20;99.90
32947;DHT22;54465;51.230;22.504;2022-09-09T14:55:24;15.20;99.90
32947;DHT22;54465;51.230;22.504;2022-09-09T14:58:32;15.20;99.90
32947;DHT22;54465;51.230;22.504;2022-09-09T15:01:42;15.20;99.90
32947;DHT22;54465;51.230;22.504;2022-09-09T15:04:45;15.10;99.90
32947;DHT22;54465;51.230;22.504;2022-09-09T15:07:50;15.10;99.90
32947;DHT22;54465;51.230;22.504;2022-09-09T15:10:59;15.10;99.90
32947;DHT22;54465;51.230;22.504;2022-09-09T15:14:03;15.10;99.90
32947;DHT22;54465;51.230;22.504;2022-09-09T15:17:10;15.00;99.90
32947;DHT22;54465;51.230;22.504;2022-09-09T15:20:18;15.00;99.90
32947;DHT22;54465;51.230;22.504;2022-09-09T15:23:21;15.00;99.90
32947;DHT22;54465;51.230;22.504;2022-09-09T15:26:26;15.00;99.90
32947;DHT22;54465;51.230;22.504;2022-09-09T15:29:29;15.00;99.90
32947;DHT22;54465;51.230;22.504;2022-09-09T15:32:33;15.00;99.90
32947;DHT22;54465;51.230;22.504;2022-09-09T15:35:46;15.10;99.90
32947;DHT22;54465;51.230;22.504;2022-09-09T15:38:52;15.10;99.90
32947;DHT22;54465;51.230;22.504;2022-09-09T15:41:58;15.20;99.90
32947;DHT22;54465;51.230;22.504;2022-09-09T15:45:04;15.20;99.90
32947;DHT22;54465;51.230;22.504;2022-09-09T15:48:11;15.30;99.90
32947;DHT22;54465;51.230;22.504;2022-09-09T15:51:14;15.30;99.90
32947;DHT22;54465;51.230;22.504;2022-09-09T15:54:21;15.40;99.90
32947;DHT22;54465;51.230;22.504;2022-09-09T15:57:25;15.50;99.90
32947;DHT22;54465;51.230;22.504;2022-09-09T16:00:28;15.60;99.90
32947;DHT22;54465;51.230;22.504;2022-09-09T16:03:34;15.70;99.90
32947;DHT22;54465;51.230;22.504;2022-09-09T16:06:37;15.70;99.90
32947;DHT22;54465;51.230;22.504;2022-09-09T16:09:41;15.70;99.90
32947;DHT22;54465;51.230;22.504;2022-09-09T16:12:46;15.60;99.90
32947;DHT22;54465;51.230;22.504;2022-09-09T16:15:53;15.60;99.90
32947;DHT22;54465;51.230;22.504;2022-09-09T16:18:58;15.50;99.90
32947;DHT22;54465;51.230;22.504;2022-09-09T16:22:02;15.40;99.90
32947;DHT22;54465;51.230;22.504;2022-09-09T16:25:07;15.30;99.90
32947;DHT22;54465;51.230;22.504;2022-09-09T16:28:11;15.20;99.90
32947;DHT22;54465;51.230;22.504;2022-09-09T16:31:16;15.10;99.90
32947;DHT22;54465;51.230;22.504;2022-09-09T16:34:20;15.10;99.90
32947;DHT22;54465;51.230;22.504;2022-09-09T16:37:23;15.10;99.90
32947;DHT22;54465;51.230;22.504;2022-09-09T16:40:28;15.00;99.90
32947;DHT22;54465;51.230;22.504;2022-09-09T16:43:33;15.00;99.90
32947;DHT22;54465;51.230;22.504;2022-09-09T16:46:36;14.90;99.90
32947;DHT22;54465;51.230;22.504;2022-09-09T16:49:39;14.90;99.90
32947;DHT22;54465;51.230;22.504;2022-09-09T16:52:41;14.80;99.90
32947;DHT22;54465;51.230;22.504;2022-09-09T16:55:46;14.90;99.90
32947;DHT22;54465;51.230;22.504;2022-09-09T16:58:50;14.80;99.90
32947;DHT22;54465;51.230;22.504;2022-09-09T17:01:55;14.80;99.90
32947;DHT22;54465;51.230;22.504;2022-09-09T17:04:58;14.80;99.90
32947;DHT22;54465;51.230;22.504;2022-09-09T17:08:01;14.80;99.90
32947;DHT22;54465;51.230;22.504;2022-09-09T17:11:12;14.80;99.90
32947;DHT22;54465;51.230;22.504;2022-09-09T17:14:17;14.80;99.90
32947;DHT22;54465;51.230;22.504;2022-09-09T17:17:19;14.70;99.90
32947;DHT22;54465;51.230;22.504;2022-09-09T17:20:22;14.70;99.90
32947;DHT22;54465;51.230;22.504;2022-09-09T17:23:24;14.60;99.90
32947;DHT22;54465;51.230;22.504;2022-09-09T17:26:30;14.60;99.90
32947;DHT22;54465;51.230;22.504;2022-09-09T17:29:33;14.60;99.90
32947;DHT22;54465;51.230;22.504;2022-09-09T17:32:37;14.50;99.90
32947;DHT22;54465;51.230;22.504;2022-09-09T17:35:39;14.50;99.90
32947;DHT22;54465;51.230;22.504;2022-09-09T17:38:46;14.50;99.90
32947;DHT22;54465;51.230;22.504;2022-09-09T17:41:51;14.50;99.90
32947;DHT22;54465;51.230;22.504;2022-09-09T17:44:56;14.50;99.90
32947;DHT22;54465;51.230;22.504;2022-09-09T17:48:00;14.50;99.90
32947;DHT22;54465;51.230;22.504;2022-09-09T17:51:05;14.40;99.90
32947;DHT22;54465;51.230;22.504;2022-09-09T17:54:10;14.40;99.90
32947;DHT22;54465;51.230;22.504;2022-09-09T17:57:15;14.40;99.90
32947;DHT22;54465;51.230;22.504;2022-09-09T18:00:20;14.50;99.90
32947;DHT22;54465;51.230;22.504;2022-09-09T18:03:22;14.40;99.90
32947;DHT22;54465;51.230;22.504;2022-09-09T18:06:27;14.40;99.90
32947;DHT22;54465;51.230;22.504;2022-09-09T18:09:30;14.50;99.90
32947;DHT22;54465;51.230;22.504;2022-09-09T18:12:34;14.40;99.90
32947;DHT22;54465;51.230;22.504;2022-09-09T18:15:36;14.40;99.90
32947;DHT22;54465;51.230;22.504;2022-09-09T18:18:39;14.40;99.90
32947;DHT22;54465;51.230;22.504;2022-09-09T18:21:42;14.50;99.90
32947;DHT22;54465;51.230;22.504;2022-09-09T18:24:44;14.50;99.90
32947;DHT22;54465;51.230;22.504;2022-09-09T18:27:51;14.50;99.90
32947;DHT22;54465;51.230;22.504;2022-09-09T18:30:54;14.50;99.90
32947;DHT22;54465;51.230;22.504;2022-09-09T18:34:00;14.40;99.90
32947;DHT22;54465;51.230;22.504;2022-09-09T18:37:02;14.40;99.90
32947;DHT22;54465;51.230;22.504;2022-09-09T18:40:05;14.30;99.90
32947;DHT22;54465;51.230;22.504;2022-09-09T18:43:10;14.30;99.90
32947;DHT22;54465;51.230;22.504;2022-09-09T18:46:12;14.30;99.90
32947;DHT22;54465;51.230;22.504;2022-09-09T18:49:17;14.20;99.90
32947;DHT22;54465;51.230;22.504;2022-09-09T18:52:20;14.10;99.90
32947;DHT22;54465;51.230;22.504;2022-09-09T18:55:22;14.10;99.90
32947;DHT22;54465;51.230;22.504;2022-09-09T18:58:26;14.10;99.90
32947;DHT22;54465;51.230;22.504;2022-09-09T19:01:29;14.00;99.90
32947;DHT22;54465;51.230;22.504;2022-09-09T19:04:32;14.00;99.90
32947;DHT22;54465;51.230;22.504;2022-09-09T19:07:34;14.00;99.90
32947;DHT22;54465;51.230;22.504;2022-09-09T19:10:37;13.90;99.90
32947;DHT22;54465;51.230;22.504;2022-09-09T19:13:50;13.90;99.90
32947;DHT22;54465;51.230;22.504;2022-09-09T19:16:53;13.90;99.90
32947;DHT22;54465;51.230;22.504;2022-09-09T19:19:56;13.80;99.90
32947;DHT22;54465;51.230;22.504;2022-09-09T19:23:00;13.80;99.90
32947;DHT22;54465;51.230;22.504;2022-09-09T19:26:03;13.80;99.90
32947;DHT22;54465;51.230;22.504;2022-09-09T19:29:08;13.70;99.90
32947;DHT22;54465;51.230;22.504;2022-09-09T19:32:11;13.70;99.90